createdAt,value
2018-09-02T00:01:34.833Z,11.00
2018-09-02T00:04:03.330Z,10.90
2018-09-02T00:06:31.799Z,10.90
2018-09-02T00:09:00.285Z,10.90
2018-09-02T00:11:28.870Z,10.90
2018-09-02T00:13:57.358Z,10.80
2018-09-02T00:16:25.834Z,10.80
2018-09-02T00:18:54.348Z,10.90
2018-09-02T00:21:22.805Z,10.80
2018-09-02T00:23:51.281Z,10.80
2018-09-02T00:26:19.741Z,10.80
2018-09-02T00:28:48.203Z,10.80
2018-09-02T00:31:16.710Z,10.70
2018-09-02T00:33:45.172Z,10.70
2018-09-02T00:36:13.649Z,10.70
2018-09-02T00:38:42.101Z,10.70
2018-09-02T00:41:10.570Z,10.70
2018-09-02T00:43:39.017Z,10.70
2018-09-02T00:46:07.522Z,10.70
2018-09-02T00:48:35.972Z,10.60
2018-09-02T00:51:04.493Z,10.60
2018-09-02T00:53:32.988Z,10.60
2018-09-02T00:56:01.485Z,10.50
2018-09-02T00:58:30.000Z,10.50
2018-09-02T01:00:58.492Z,10.50
2018-09-02T01:03:26.950Z,10.40
2018-09-02T01:05:55.369Z,10.40
2018-09-02T01:08:23.856Z,10.40
2018-09-02T01:10:52.410Z,10.50
2018-09-02T01:13:20.973Z,10.50
2018-09-02T01:15:49.420Z,10.40
2018-09-02T01:18:18.257Z,10.30
2018-09-02T01:20:46.697Z,10.30
2018-09-02T01:23:15.181Z,10.30
2018-09-02T01:25:43.628Z,10.30
2018-09-02T01:28:12.150Z,10.30
2018-09-02T01:30:40.705Z,10.40
2018-09-02T01:33:09.797Z,10.40
2018-09-02T01:35:38.253Z,10.30
2018-09-02T01:38:06.759Z,10.30
2018-09-02T01:40:36.017Z,10.30
2018-09-02T01:43:05.113Z,10.20
2018-09-02T01:45:33.801Z,10.30
2018-09-02T01:48:02.785Z,10.20
2018-09-02T01:50:31.258Z,10.10
2018-09-02T01:52:59.737Z,10.00
2018-09-02T01:55:28.226Z,10.10
2018-09-02T01:57:56.720Z,10.10
2018-09-02T02:00:25.176Z,10.00
2018-09-02T02:02:53.652Z,10.10
2018-09-02T02:05:22.162Z,10.10
2018-09-02T02:07:50.642Z,10.10
2018-09-02T02:10:19.650Z,10.00
2018-09-02T02:12:48.117Z,10.00
2018-09-02T02:15:16.582Z,10.00
2018-09-02T02:17:45.064Z,10.00
2018-09-02T02:20:13.566Z,9.90
2018-09-02T02:22:42.021Z,9.90
2018-09-02T02:25:10.424Z,10.00
2018-09-02T02:27:38.920Z,9.90
2018-09-02T02:30:07.437Z,9.90
2018-09-02T02:32:35.969Z,9.90
2018-09-02T02:35:04.468Z,9.80
2018-09-02T02:37:32.943Z,9.80
2018-09-02T02:40:01.404Z,9.80
2018-09-02T02:42:29.862Z,9.80
2018-09-02T02:44:58.306Z,9.80
2018-09-02T02:47:26.789Z,9.80
2018-09-02T02:49:55.262Z,9.80
2018-09-02T02:52:28.135Z,9.70
2018-09-02T02:54:56.593Z,9.80
2018-09-02T02:57:25.069Z,9.70
2018-09-02T02:59:53.517Z,9.70
2018-09-02T03:02:22.017Z,9.70
2018-09-02T03:04:50.508Z,9.60
2018-09-02T03:07:18.988Z,9.50
2018-09-02T03:09:47.442Z,9.60
2018-09-02T03:12:15.916Z,9.50
2018-09-02T03:14:44.375Z,9.50
2018-09-02T03:17:12.832Z,9.50
2018-09-02T03:19:41.321Z,9.50
2018-09-02T03:22:09.801Z,9.50
2018-09-02T03:24:38.285Z,9.50
2018-09-02T03:27:06.766Z,9.40
2018-09-02T03:29:35.242Z,9.40
2018-09-02T03:32:03.739Z,9.50
2018-09-02T03:34:32.156Z,9.50
2018-09-02T03:37:00.641Z,9.40
2018-09-02T03:39:29.264Z,9.40
2018-09-02T03:41:57.728Z,9.40
2018-09-02T03:44:26.195Z,9.40
2018-09-02T03:46:54.659Z,9.40
2018-09-02T03:49:23.098Z,9.40
2018-09-02T03:51:51.529Z,9.40
2018-09-02T03:54:19.957Z,9.30
2018-09-02T03:56:48.438Z,9.20
2018-09-02T03:59:16.880Z,9.20
2018-09-02T04:01:45.354Z,9.20
2018-09-02T04:04:13.816Z,9.20
2018-09-02T04:06:43.269Z,9.20
2018-09-02T04:09:12.142Z,9.30
2018-09-02T04:11:41.146Z,9.30
2018-09-02T04:14:09.637Z,9.30
2018-09-02T04:16:38.084Z,9.20
2018-09-02T04:19:06.568Z,9.10
2018-09-02T04:21:35.129Z,9.10
2018-09-02T04:24:03.821Z,9.10
2018-09-02T04:26:32.277Z,9.10
2018-09-02T04:29:00.831Z,9.20
2018-09-02T04:31:29.315Z,9.20
2018-09-02T04:33:57.817Z,9.20
2018-09-02T04:36:26.290Z,9.20
2018-09-02T04:38:54.762Z,9.10
2018-09-02T04:41:23.325Z,9.20
2018-09-02T04:43:51.796Z,9.20
2018-09-02T04:46:20.389Z,9.20
2018-09-02T04:48:48.882Z,9.10
2018-09-02T04:51:17.401Z,9.10
2018-09-02T04:53:45.930Z,9.10
2018-09-02T04:56:14.421Z,9.10
2018-09-02T04:58:42.892Z,9.10
2018-09-02T05:01:11.397Z,9.10
2018-09-02T05:03:39.891Z,9.10
2018-09-02T05:06:08.447Z,9.10
2018-09-02T05:08:36.974Z,9.00
2018-09-02T05:11:05.536Z,9.00
2018-09-02T05:13:34.003Z,9.00
2018-09-02T05:16:02.507Z,9.00
2018-09-02T05:18:31.087Z,9.00
2018-09-02T05:20:59.564Z,8.90
2018-09-02T05:23:28.026Z,9.00
2018-09-02T05:25:56.597Z,9.10
2018-09-02T05:28:25.131Z,9.20
2018-09-02T05:30:53.654Z,9.20
2018-09-02T05:33:22.135Z,9.20
2018-09-02T05:35:50.637Z,9.20
2018-09-02T05:38:19.189Z,9.30
2018-09-02T05:40:47.665Z,9.30
2018-09-02T05:43:16.191Z,9.40
2018-09-02T05:45:44.776Z,9.50
2018-09-02T05:48:13.240Z,9.50
2018-09-02T05:50:44.946Z,9.60
2018-09-02T05:53:13.396Z,9.70
2018-09-02T05:55:41.917Z,9.70
2018-09-02T05:58:10.439Z,9.80
2018-09-02T06:00:40.303Z,9.80
2018-09-02T06:03:08.861Z,9.80
2018-09-02T06:05:37.456Z,9.90
2018-09-02T06:08:05.926Z,10.00
2018-09-02T06:10:34.474Z,10.00
2018-09-02T06:13:02.985Z,10.10
2018-09-02T06:15:31.463Z,10.10
2018-09-02T06:17:59.953Z,10.20
2018-09-02T06:20:28.461Z,10.30
2018-09-02T06:22:56.932Z,10.40
2018-09-02T06:25:25.441Z,10.50
2018-09-02T06:27:54.154Z,10.60
2018-09-02T06:30:22.595Z,10.70
2018-09-02T06:32:51.082Z,10.80
2018-09-02T06:35:20.439Z,10.90
2018-09-02T06:37:48.882Z,11.10
2018-09-02T06:40:17.457Z,11.30
2018-09-02T06:42:46.008Z,11.60
2018-09-02T06:45:14.504Z,11.70
2018-09-02T06:47:42.988Z,12.00
2018-09-02T06:50:11.588Z,12.10
2018-09-02T06:52:40.114Z,12.30
2018-09-02T06:55:08.613Z,12.40
2018-09-02T06:57:37.128Z,12.60
2018-09-02T07:00:05.801Z,12.90
2018-09-02T07:02:35.347Z,13.00
2018-09-02T07:05:04.534Z,13.20
2018-09-02T07:07:33.054Z,13.40
2018-09-02T07:10:01.562Z,13.50
2018-09-02T07:12:30.175Z,13.70
2018-09-02T07:14:58.649Z,13.80
2018-09-02T07:17:27.193Z,14.00
2018-09-02T07:19:55.711Z,14.10
2018-09-02T07:22:24.207Z,14.20
2018-09-02T07:24:52.719Z,14.30
2018-09-02T07:27:21.201Z,14.50
2018-09-02T07:29:49.686Z,14.60
2018-09-02T07:32:18.239Z,14.80
2018-09-02T07:34:46.726Z,14.90
2018-09-02T07:37:15.230Z,15.10
2018-09-02T07:39:43.752Z,15.30
2018-09-02T07:42:12.258Z,15.40
2018-09-02T07:44:40.808Z,15.60
2018-09-02T07:47:09.260Z,15.70
2018-09-02T07:49:37.861Z,15.80
2018-09-02T07:52:06.347Z,16.00
2018-09-02T07:54:35.015Z,16.10
2018-09-02T07:57:03.550Z,16.40
2018-09-02T07:59:32.143Z,16.60
2018-09-02T08:02:00.699Z,16.70
2018-09-02T08:04:29.197Z,16.80
2018-09-02T08:06:57.709Z,17.00
2018-09-02T08:09:26.183Z,17.20
2018-09-02T08:11:54.733Z,17.40
2018-09-02T08:14:23.189Z,17.40
2018-09-02T08:16:51.680Z,17.50
2018-09-02T08:19:20.151Z,17.50
2018-09-02T08:21:48.630Z,17.70
2018-09-02T08:24:17.117Z,17.70
2018-09-02T08:26:45.686Z,17.90
2018-09-02T08:29:14.058Z,18.00
2018-09-02T08:31:43.421Z,18.10
2018-09-02T08:34:11.940Z,18.30
2018-09-02T08:36:40.516Z,18.30
2018-09-02T08:39:10.636Z,18.50
2018-09-02T08:41:39.720Z,18.40
2018-09-02T08:44:08.197Z,18.40
2018-09-02T08:46:36.944Z,18.50
2018-09-02T08:49:05.614Z,18.60
2018-09-02T08:51:34.079Z,18.70
2018-09-02T08:54:02.566Z,18.90
2018-09-02T08:56:31.085Z,19.10
2018-09-02T08:58:59.598Z,19.10
2018-09-02T09:01:28.051Z,19.20
2018-09-02T09:03:56.530Z,19.30
2018-09-02T09:06:25.278Z,19.30
2018-09-02T09:08:54.107Z,19.40
2018-09-02T09:11:22.484Z,19.50
2018-09-02T09:13:50.963Z,19.60
2018-09-02T09:16:19.515Z,19.60
2018-09-02T09:18:48.002Z,19.70
2018-09-02T09:21:16.440Z,19.80
2018-09-02T09:23:44.941Z,19.90
2018-09-02T09:26:13.492Z,19.90
2018-09-02T09:28:41.949Z,20.00
2018-09-02T09:31:11.026Z,20.20
2018-09-02T09:33:39.842Z,20.30
2018-09-02T09:36:08.306Z,20.30
2018-09-02T09:38:36.801Z,20.30
2018-09-02T09:41:05.522Z,20.30
2018-09-02T09:43:33.995Z,20.30
2018-09-02T09:46:02.558Z,20.30
2018-09-02T09:48:30.979Z,20.40
2018-09-02T09:50:59.431Z,20.40
2018-09-02T09:53:27.871Z,20.50
2018-09-02T09:55:56.339Z,20.50
2018-09-02T09:58:24.869Z,20.50
2018-09-02T10:00:53.372Z,20.60
2018-09-02T10:03:22.402Z,20.70
2018-09-02T10:05:50.943Z,20.80
2018-09-02T10:08:19.342Z,20.70
2018-09-02T10:10:47.858Z,20.70
2018-09-02T10:13:16.337Z,20.70
2018-09-02T10:15:44.824Z,20.80
2018-09-02T10:18:13.449Z,20.80
2018-09-02T10:20:41.807Z,20.80
2018-09-02T10:23:10.275Z,20.80
2018-09-02T10:25:38.833Z,21.00
2018-09-02T10:28:07.289Z,21.20
2018-09-02T10:30:35.770Z,21.10
2018-09-02T10:33:04.283Z,21.20
2018-09-02T10:35:32.725Z,21.20
2018-09-02T10:38:01.185Z,21.20
2018-09-02T10:40:29.621Z,21.30
2018-09-02T10:42:58.114Z,21.30
2018-09-02T10:45:26.582Z,21.30
2018-09-02T10:47:55.054Z,21.30
2018-09-02T10:50:23.492Z,21.30
2018-09-02T10:52:51.977Z,21.30
2018-09-02T10:55:20.423Z,21.30
2018-09-02T10:57:48.893Z,21.40
2018-09-02T11:00:17.437Z,21.40
2018-09-02T11:02:45.914Z,21.40
2018-09-02T11:05:14.392Z,21.40
2018-09-02T11:07:42.937Z,21.50
2018-09-02T11:10:11.329Z,21.60
2018-09-02T11:12:39.785Z,21.70
2018-09-02T11:15:08.369Z,21.80
2018-09-02T11:17:37.187Z,21.90
2018-09-02T11:20:05.869Z,22.00
2018-09-02T11:22:36.697Z,22.10
2018-09-02T11:25:06.422Z,22.30
2018-09-02T11:27:35.503Z,22.30
2018-09-02T11:30:04.377Z,22.20
2018-09-02T11:32:34.084Z,22.10
2018-09-02T11:35:02.980Z,22.00
2018-09-02T11:37:31.846Z,22.00
2018-09-02T11:40:00.337Z,22.20
2018-09-02T11:42:28.814Z,22.20
2018-09-02T11:44:57.475Z,22.30
2018-09-02T11:47:25.843Z,22.30
2018-09-02T11:49:54.495Z,22.30
2018-09-02T11:52:22.932Z,22.40
2018-09-02T11:54:52.618Z,22.50
2018-09-02T11:57:21.750Z,22.70
2018-09-02T11:59:50.218Z,22.80
2018-09-02T12:02:18.769Z,23.00
2018-09-02T12:04:47.246Z,23.00
2018-09-02T12:07:15.703Z,22.80
2018-09-02T12:09:44.171Z,22.90
2018-09-02T12:12:12.637Z,22.90
2018-09-02T12:14:41.067Z,22.70
2018-09-02T12:17:09.532Z,22.60
2018-09-02T12:19:37.954Z,22.60
2018-09-02T12:22:06.535Z,22.60
2018-09-02T12:24:35.027Z,22.60
2018-09-02T12:27:09.861Z,22.60
2018-09-02T12:29:38.358Z,22.40
2018-09-02T12:32:06.869Z,22.40
2018-09-02T12:34:35.328Z,22.40
2018-09-02T12:37:03.835Z,22.40
2018-09-02T12:39:32.424Z,22.60
2018-09-02T12:42:00.941Z,22.80
2018-09-02T12:44:29.441Z,22.90
2018-09-02T12:46:57.883Z,22.90
2018-09-02T12:49:26.326Z,22.90
2018-09-02T12:51:54.845Z,22.90
2018-09-02T12:54:23.277Z,22.80
2018-09-02T12:56:51.759Z,23.00
2018-09-02T12:59:20.204Z,23.10
2018-09-02T13:01:48.673Z,23.10
2018-09-02T13:04:17.146Z,23.00
2018-09-02T13:06:45.703Z,23.10
2018-09-02T13:09:14.220Z,23.10
2018-09-02T13:11:49.350Z,23.00
2018-09-02T13:14:17.856Z,23.10
2018-09-02T13:16:46.341Z,23.20
2018-09-02T13:19:14.866Z,23.20
2018-09-02T13:21:43.322Z,23.30
2018-09-02T13:24:11.782Z,23.10
2018-09-02T13:26:40.283Z,23.10
2018-09-02T13:29:08.809Z,23.10
2018-09-02T13:31:37.428Z,23.00
2018-09-02T13:34:05.914Z,23.00
2018-09-02T13:36:34.447Z,23.00
2018-09-02T13:39:02.945Z,23.00
2018-09-02T13:41:31.427Z,23.10
2018-09-02T13:43:59.918Z,23.10
2018-09-02T13:46:28.423Z,23.10
2018-09-02T13:48:56.877Z,23.10
2018-09-02T13:51:25.430Z,23.10
2018-09-02T13:53:53.849Z,23.10
2018-09-02T13:56:22.469Z,23.00
2018-09-02T13:58:50.929Z,23.10
2018-09-02T14:01:19.395Z,23.00
2018-09-02T14:03:47.862Z,23.00
2018-09-02T14:06:16.310Z,23.00
2018-09-02T14:08:44.790Z,22.80
2018-09-02T14:11:18.907Z,22.90
2018-09-02T14:13:47.389Z,23.00
2018-09-02T14:16:15.857Z,23.00
2018-09-02T14:18:44.332Z,22.80
2018-09-02T14:21:12.818Z,22.90
2018-09-02T14:23:41.308Z,22.90
2018-09-02T14:26:09.759Z,23.00
2018-09-02T14:28:38.248Z,23.10
2018-09-02T14:31:06.750Z,23.20
2018-09-02T14:33:35.213Z,23.00
2018-09-02T14:36:03.693Z,23.00
2018-09-02T14:38:32.140Z,23.00
2018-09-02T14:41:00.577Z,23.00
2018-09-02T14:43:29.075Z,22.80
2018-09-02T14:45:58.633Z,22.80
2018-09-02T14:48:27.118Z,22.80
2018-09-02T14:50:55.579Z,22.80
2018-09-02T14:53:24.218Z,22.70
2018-09-02T14:55:52.675Z,22.70
2018-09-02T14:58:21.186Z,22.80
2018-09-02T15:00:49.685Z,22.80
2018-09-02T15:03:18.163Z,22.80
2018-09-02T15:05:46.594Z,22.70
2018-09-02T15:08:15.132Z,22.80
2018-09-02T15:10:43.599Z,22.70
2018-09-02T15:13:12.054Z,22.80
2018-09-02T15:15:40.541Z,22.80
2018-09-02T15:18:09.019Z,22.80
2018-09-02T15:20:37.551Z,22.70
2018-09-02T15:23:06.476Z,22.80
2018-09-02T15:25:34.940Z,22.80
2018-09-02T15:28:03.429Z,22.70
2018-09-02T15:30:31.892Z,22.50
2018-09-02T15:33:00.429Z,22.50
2018-09-02T15:35:28.905Z,22.40
2018-09-02T15:37:57.387Z,22.50
2018-09-02T15:40:25.857Z,22.60
2018-09-02T15:42:54.369Z,22.60
2018-09-02T15:45:22.865Z,22.60
2018-09-02T15:47:51.334Z,22.70
2018-09-02T15:50:19.834Z,22.70
2018-09-02T15:52:48.348Z,22.60
2018-09-02T15:55:16.799Z,22.70
2018-09-02T15:57:45.386Z,22.60
2018-09-02T16:00:13.835Z,22.70
2018-09-02T16:02:42.337Z,22.70
2018-09-02T16:05:10.818Z,22.60
2018-09-02T16:07:39.331Z,22.50
2018-09-02T16:10:07.853Z,22.50
2018-09-02T16:12:36.331Z,22.40
2018-09-02T16:15:05.065Z,22.50
2018-09-02T16:17:33.552Z,22.40
2018-09-02T16:20:02.068Z,22.30
2018-09-02T16:22:30.607Z,22.30
2018-09-02T16:24:59.081Z,22.30
2018-09-02T16:27:27.570Z,22.20
2018-09-02T16:29:55.992Z,22.20
2018-09-02T16:32:24.505Z,22.10
2018-09-02T16:34:52.993Z,22.10
2018-09-02T16:37:21.530Z,22.10
2018-09-02T16:39:50.011Z,22.10
2018-09-02T16:42:18.570Z,22.10
2018-09-02T16:44:47.072Z,22.10
2018-09-02T16:47:15.510Z,22.20
2018-09-02T16:49:43.993Z,22.20
2018-09-02T16:52:12.437Z,22.20
2018-09-02T16:54:40.937Z,22.20
2018-09-02T16:57:09.369Z,22.20
2018-09-02T16:59:40.733Z,22.30
2018-09-02T17:02:09.183Z,22.30
2018-09-02T17:04:39.861Z,22.30
2018-09-02T17:07:08.308Z,22.30
2018-09-02T17:09:36.793Z,22.40
2018-09-02T17:12:05.491Z,22.40
2018-09-02T17:14:33.844Z,22.40
2018-09-02T17:17:02.300Z,22.40
2018-09-02T17:19:33.497Z,22.40
2018-09-02T17:22:02.066Z,22.30
2018-09-02T17:24:30.614Z,22.20
2018-09-02T17:26:59.090Z,22.10
2018-09-02T17:29:27.570Z,22.10
2018-09-02T17:31:56.709Z,22.10
2018-09-02T17:34:25.164Z,22.00
2018-09-02T17:36:53.632Z,21.90
2018-09-02T17:39:22.160Z,21.80
2018-09-02T17:41:50.648Z,21.70
2018-09-02T17:44:19.096Z,21.70
2018-09-02T17:46:47.582Z,21.60
2018-09-02T17:49:16.032Z,21.60
2018-09-02T17:51:44.495Z,21.40
2018-09-02T17:54:13.005Z,21.40
2018-09-02T17:56:41.459Z,21.30
2018-09-02T17:59:09.938Z,21.30
